Time;durP1;ratioP1;P1;durP2;ratioP2;P2;SDS_P1;SDS_P2;PMS_P1;PMS_P2;Temp;Humidity;BMP_temperature;BMP_pressure;BME280_temperature;BME280_humidity;BME280_pressure;Samples;Min_cycle;Max_cycle;Signal;HPM_P1;HPM_P2
2023/06/07 00:00:17;;;;;;;;;;;;;;;13.45;81.52;102281.50;20970963;28;19924;-59
2023/06/07 00:10:39;;;;;;;;;;;;;;;13.35;82.00;102270.41;20970924;28;20032;-59
2023/06/07 00:21:01;;;;;;;;;;;;;;;13.27;82.38;102261.06;20974183;28;20022;-59
2023/06/07 00:31:22;;;;;;;;;;;;;;;13.20;82.48;102259.44;20953768;28;19931;-59
2023/06/07 00:41:44;;;;;;;;;;;;;;;13.13;82.49;102255.25;20967046;28;20209;-60
2023/06/07 00:52:06;;;;;;;;;;;;;;;12.89;83.96;102248.69;20943514;28;19974;-59
2023/06/07 01:02:29;;;;;;;;;;;;;;;12.80;83.98;102254.06;20974595;28;19932;-59
2023/06/07 01:12:54;;;;;;;;;;;;;;;12.78;83.35;102256.66;20963690;28;19974;-59
2023/06/07 01:23:16;;;;;;;;;;;;;;;12.69;84.68;102251.59;20972870;28;19924;-59
2023/06/07 01:33:38;;;;;;;;;;;;;;;12.64;84.83;102242.16;20979128;28;19928;-59
2023/06/07 01:44:00;;;;;;;;;;;;;;;12.66;85.23;102249.06;20960997;28;19924;-59
2023/06/07 01:54:22;;;;;;;;;;;;;;;12.63;84.77;102241.31;20963004;28;19932;-58
2023/06/07 02:04:45;;;;;;;;;;;;;;;12.65;84.91;102236.97;20948810;28;20011;-59
2023/06/07 02:15:08;;;;;;;;;;;;;;;12.62;84.92;102237.00;20966036;28;19969;-59
2023/06/07 02:25:30;;;;;;;;;;;;;;;12.55;86.08;102232.78;20962414;28;19936;-59
2023/06/07 02:35:52;;;;;;;;;;;;;;;12.48;85.99;102231.16;20961691;28;19927;-59
2023/06/07 02:46:13;;;;;;;;;;;;;;;12.51;85.69;102241.50;20974403;28;19928;-59
2023/06/07 02:56:35;;;;;;;;;;;;;;;12.49;86.72;102232.88;20958054;28;19955;-59
2023/06/07 03:06:57;;;;;;;;;;;;;;;12.39;86.65;102223.53;20954967;28;19969;-59
2023/06/07 03:17:18;;;;;;;;;;;;;;;12.27;87.55;102223.69;20954107;28;20022;-59
2023/06/07 03:27:40;;;;;;;;;;;;;;;12.29;87.28;102231.47;20973159;28;19920;-59
2023/06/07 03:38:02;;;;;;;;;;;;;;;12.34;86.79;102225.34;20971950;28;19927;-59
2023/06/07 03:48:24;;;;;;;;;;;;;;;12.30;87.23;102221.06;20960341;28;20023;-59
2023/06/07 03:58:46;;;;;;;;;;;;;;;12.35;87.58;102229.63;20969159;28;20022;-59
2023/06/07 04:09:08;;;;;;;;;;;;;;;12.44;87.89;102239.88;20965641;28;20391;-59
2023/06/07 04:19:29;;;;;;;;;;;;;;;12.46;88.31;102240.72;20974464;28;19930;-59
2023/06/07 04:29:53;;;;;;;;;;;;;;;12.61;88.07;102240.50;20970182;28;19924;-59
2023/06/07 04:40:15;;;;;;;;;;;;;;;12.64;87.67;102232.63;20988800;28;19920;-59
2023/06/07 04:50:38;;;;;;;;;;;;;;;12.83;87.48;102222.81;20982965;28;20294;-60
2023/06/07 05:01:00;;;;;;;;;;;;;;;13.00;86.49;102218.19;20962547;28;19928;-59
2023/06/07 05:11:22;;;;;;;;;;;;;;;13.09;86.28;102216.28;20984195;28;20509;-59
2023/06/07 05:21:43;;;;;;;;;;;;;;;13.27;87.26;102225.53;20964646;28;20569;-59
2023/06/07 05:32:05;;;;;;;;;;;;;;;13.48;87.05;102229.47;20980658;28;19945;-59
2023/06/07 05:42:27;;;;;;;;;;;;;;;13.71;85.94;102230.72;20964075;28;19974;-59
2023/06/07 05:52:56;;;;;;;;;;;;;;;13.91;86.47;102240.69;20963492;28;19949;-59
2023/06/07 06:03:18;;;;;;;;;;;;;;;14.09;84.88;102245.50;20960171;28;19920;-59
2023/06/07 06:13:40;;;;;;;;;;;;;;;14.13;84.83;102249.78;20962723;28;20360;-59
2023/06/07 06:24:02;;;;;;;;;;;;;;;14.45;83.94;102255.13;20964283;28;19931;-60
2023/06/07 06:34:28;;;;;;;;;;;;;;;14.75;83.38;102248.34;20950196;28;21616;-59
2023/06/07 06:44:49;;;;;;;;;;;;;;;14.82;81.71;102255.97;20956146;28;19935;-60
2023/06/07 06:55:11;;;;;;;;;;;;;;;15.17;82.39;102275.09;20976835;28;20375;-60
2023/06/07 07:05:33;;;;;;;;;;;;;;;15.36;80.02;102268.50;20961387;28;19925;-60
2023/06/07 07:15:55;;;;;;;;;;;;;;;15.69;78.11;102268.50;20969177;28;19928;-60
2023/06/07 07:26:17;;;;;;;;;;;;;;;15.83;76.95;102268.94;20992030;28;19951;-60
2023/06/07 07:36:39;;;;;;;;;;;;;;;16.11;77.05;102269.84;20975257;28;20284;-60
2023/06/07 07:47:05;;;;;;;;;;;;;;;16.32;76.23;102272.69;20963537;28;19924;-60
2023/06/07 07:57:26;;;;;;;;;;;;;;;16.39;75.21;102272.47;20993591;28;19924;-60
2023/06/07 08:07:48;;;;;;;;;;;;;;;16.41;74.09;102278.50;20982130;28;19932;-60
2023/06/07 08:18:09;;;;;;;;;;;;;;;16.66;75.51;102263.81;20986078;28;19924;-60
2023/06/07 08:28:31;;;;;;;;;;;;;;;16.84;72.20;102244.06;20967594;28;19929;-60
2023/06/07 08:38:52;;;;;;;;;;;;;;;17.13;71.69;102240.44;20980944;28;19925;-60
2023/06/07 08:49:14;;;;;;;;;;;;;;;17.24;73.43;102248.78;20969832;28;19963;-60
2023/06/07 08:59:37;;;;;;;;;;;;;;;17.74;70.56;102250.50;20951870;28;19932;-60
2023/06/07 09:09:58;;;;;;;;;;;;;;;17.97;70.75;102253.97;20980066;28;19928;-60
2023/06/07 09:20:24;;;;;;;;;;;;;;;18.33;70.60;102241.19;20969067;28;19931;-61
2023/06/07 09:30:55;;;;;;;;;;;;;;;18.53;69.12;102235.22;20980347;28;20521;-61
2023/06/07 09:41:17;;;;;;;;;;;;;;;18.87;67.20;102231.13;20978326;28;19924;-60
2023/06/07 09:51:42;;;;;;;;;;;;;;;19.24;66.08;102229.56;20970086;28;19967;-60
2023/06/07 10:02:36;;;;;;;;;;;;;;;19.39;66.90;102226.31;20967072;28;19932;-62
2023/06/07 10:13:02;;;;;;;;;;;;;;;19.79;65.89;102221.81;20956946;28;19956;-61
2023/06/07 10:23:28;;;;;;;;;;;;;;;20.01;66.21;102200.66;20970340;28;20430;-60
2023/06/07 10:33:51;;;;;;;;;;;;;;;20.46;64.21;102208.97;20967016;28;20674;-61
2023/06/07 10:44:13;;;;;;;;;;;;;;;20.74;64.81;102195.31;20976971;28;19929;-60
2023/06/07 10:54:35;;;;;;;;;;;;;;;20.96;63.75;102188.91;20978639;28;19994;-61
2023/06/07 11:04:57;;;;;;;;;;;;;;;21.27;59.88;102185.53;20925940;22;19960;-62
2023/06/07 11:15:20;;;;;;;;;;;;;;;21.43;62.21;102182.94;20871904;28;19970;-64
2023/06/07 11:25:42;;;;;;;;;;;;;;;21.66;60.98;102174.66;20857947;28;20019;-63
2023/06/07 11:36:09;;;;;;;;;;;;;;;21.84;61.60;102181.59;20866306;28;19928;-63
2023/06/07 11:46:31;;;;;;;;;;;;;;;21.96;58.96;102158.03;20858117;28;19925;-63
2023/06/07 11:56:53;;;;;;;;;;;;;;;22.16;60.64;102154.25;20877009;28;19979;-63
2023/06/07 12:07:19;;;;;;;;;;;;;;;22.27;63.07;102140.47;20860168;28;20468;-64
2023/06/07 12:17:41;;;;;;;;;;;;;;;21.91;63.78;102143.41;20837105;28;19929;-63
2023/06/07 12:28:04;;;;;;;;;;;;;;;21.69;64.73;102138.44;20860011;28;20046;-63
2023/06/07 12:38:26;;;;;;;;;;;;;;;21.59;64.86;102136.41;20864895;28;19963;-64
2023/06/07 12:48:49;;;;;;;;;;;;;;;21.46;65.12;102145.91;20850164;28;20275;-63
2023/06/07 12:59:10;;;;;;;;;;;;;;;21.37;65.31;102130.59;20865177;28;20533;-62
2023/06/07 13:09:32;;;;;;;;;;;;;;;21.25;66.25;102141.78;20853911;28;20315;-62
2023/06/07 13:19:56;;;;;;;;;;;;;;;21.18;65.02;102136.00;20859818;28;19932;-62
2023/06/07 13:30:18;;;;;;;;;;;;;;;21.11;66.35;102142.53;20849792;28;20280;-62
2023/06/07 13:40:39;;;;;;;;;;;;;;;21.02;66.66;102123.72;20849466;28;20029;-62
2023/06/07 13:51:03;;;;;;;;;;;;;;;21.07;65.76;102121.69;20849015;28;20315;-62
2023/06/07 14:01:26;;;;;;;;;;;;;;;20.92;65.39;102141.75;20863787;28;19968;-65
2023/06/07 14:11:48;;;;;;;;;;;;;;;20.84;65.43;102131.59;20856138;28;20390;-62
2023/06/07 14:22:10;;;;;;;;;;;;;;;20.78;64.45;102118.78;20864524;28;19929;-63
2023/06/07 14:32:31;;;;;;;;;;;;;;;20.71;65.83;102117.38;20844360;28;19925;-64
2023/06/07 14:42:55;;;;;;;;;;;;;;;20.63;65.79;102116.94;20845021;28;20520;-63
2023/06/07 14:53:17;;;;;;;;;;;;;;;20.60;65.85;102116.25;20863074;28;19925;-62
2023/06/07 15:03:39;;;;;;;;;;;;;;;20.42;65.25;102131.16;20857979;28;19925;-62
2023/06/07 15:14:00;;;;;;;;;;;;;;;20.24;66.24;102124.19;20853358;28;20285;-62
2023/06/07 15:24:22;;;;;;;;;;;;;;;20.13;65.90;102121.19;20846858;28;19929;-62
2023/06/07 15:34:44;;;;;;;;;;;;;;;20.07;65.97;102126.75;20840025;28;20443;-62
2023/06/07 15:45:06;;;;;;;;;;;;;;;20.09;65.56;102113.53;20864067;28;19975;-63
2023/06/07 15:55:28;;;;;;;;;;;;;;;20.14;65.24;102108.91;20885174;28;19928;-63
2023/06/07 16:05:49;;;;;;;;;;;;;;;20.26;64.55;102103.06;20887855;28;19928;-64
2023/06/07 16:16:11;;;;;;;;;;;;;;;20.33;63.90;102102.69;20862130;28;19925;-63
2023/06/07 16:26:33;;;;;;;;;;;;;;;20.68;63.59;102088.59;20875293;28;19990;-64
2023/06/07 16:36:57;;;;;;;14.60;3.95;;;;;;;20.76;63.00;102078.53;20869951;28;19929;-64
2023/06/07 16:47:18;;;;;;;13.40;4.35;;;;;;;20.59;62.22;102073.28;20865835;28;20044;-63
2023/06/07 16:57:40;;;;;;;15.60;4.30;;;;;;;20.46;63.64;102082.72;20875664;28;20047;-63
2023/06/07 17:08:02;;;;;;;13.00;3.92;;;;;;;20.26;64.17;102101.28;20851139;28;20056;-62
2023/06/07 17:18:24;;;;;;;10.57;3.95;;;;;;;20.00;63.88;102112.19;20836856;28;20051;-63
2023/06/07 17:28:45;;;;;;;14.05;4.10;;;;;;;19.55;64.88;102124.91;20828596;28;20049;-63
2023/06/07 17:39:07;;;;;;;14.73;4.30;;;;;;;19.31;65.99;102112.84;20855402;28;20056;-63
2023/06/07 17:49:28;;;;;;;9.68;3.65;;;;;;;19.06;66.36;102103.47;20847744;28;20123;-63
2023/06/07 17:59:50;;;;;;;16.45;3.67;;;;;;;18.66;67.57;102114.00;20851653;28;20041;-63
2023/06/07 18:10:12;;;;;;;17.65;4.35;;;;;;;18.27;68.37;102099.94;20843918;28;20033;-64
2023/06/07 18:20:34;;;;;;;15.57;3.65;;;;;;;17.92;68.11;102114.47;20845414;28;20758;-64
2023/06/07 18:30:58;;;;;;;15.70;4.43;;;;;;;17.69;68.85;102119.72;20846287;28;20068;-63
2023/06/07 18:41:20;;;;;;;21.42;4.20;;;;;;;17.41;70.11;102112.97;20846996;28;20040;-63
2023/06/07 18:51:42;;;;;;;15.07;4.72;;;;;;;17.17;70.55;102126.94;20851307;28;20132;-63
2023/06/07 19:02:05;;;;;;;8.93;3.60;;;;;;;16.88;71.25;102128.81;20857078;28;20076;-63
2023/06/07 19:12:26;;;;;;;16.33;4.18;;;;;;;16.80;72.20;102128.25;20871537;28;20065;-62
2023/06/07 19:22:50;;;;;;;18.42;4.20;;;;;;;16.58;72.98;102127.28;20850843;28;20041;-64
2023/06/07 19:33:12;;;;;;;18.40;4.47;;;;;;;16.27;73.96;102131.78;20846208;28;20448;-63
2023/06/07 19:43:37;;;;;;;17.98;4.72;;;;;;;16.19;74.20;102144.22;20855520;28;20045;-63
2023/06/07 19:53:59;;;;;;;15.90;4.45;;;;;;;16.06;74.34;102137.69;20861364;28;20045;-63
2023/06/07 20:04:20;;;;;;;15.63;4.20;;;;;;;15.83;75.48;102141.03;20868376;28;20037;-63
2023/06/07 20:14:42;;;;;;;16.25;4.50;;;;;;;15.63;75.97;102158.19;20873590;28;20050;-63
2023/06/07 20:25:04;;;;;;;12.80;4.05;;;;;;;15.60;76.34;102163.50;20854683;28;20048;-63
2023/06/07 20:35:26;;;;;;;17.17;4.63;;;;;;;15.38;76.75;102152.81;20837535;28;20159;-63
2023/06/07 20:45:48;;;;;;;22.17;4.53;;;;;;;15.38;77.06;102146.72;20855974;28;20500;-63
2023/06/07 20:56:10;;;;;;;15.65;5.10;;;;;;;15.24;77.14;102148.84;20859551;28;20796;-62
2023/06/07 21:06:32;;;;;;;;;;;;;;;15.21;78.30;102146.34;20851961;28;20759;-63
2023/06/07 21:16:54;;;;;;;15.27;4.93;;;;;;;15.10;78.28;102141.41;20838663;28;19929;-63
2023/06/07 21:27:15;;;;;;;;;;;;;;;14.92;79.43;102137.53;20857456;28;20049;-63
2023/06/07 21:37:37;;;;;;;13.40;5.20;;;;;;;14.92;78.63;102150.56;20866837;28;20386;-63
2023/06/07 21:47:58;;;;;;;19.60;5.72;;;;;;;14.78;78.67;102170.06;20855027;28;20048;-63
2023/06/07 21:58:20;;;;;;;;;;;;;;;14.69;79.02;102165.97;20847412;28;20043;-63
2023/06/07 22:08:41;;;;;;;15.03;5.00;;;;;;;14.69;78.75;102157.28;20851041;28;19925;-63
2023/06/07 22:19:03;;;;;;;;;;;;;;;14.56;79.81;102148.94;20853213;28;20059;-63
2023/06/07 22:29:25;;;;;;;15.57;5.30;;;;;;;14.54;78.83;102160.31;20852998;28;19928;-62
2023/06/07 22:39:46;;;;;;;12.98;5.03;;;;;;;14.32;79.08;102146.94;20855086;28;20053;-63
2023/06/07 22:50:08;;;;;;;;;;;;;;;14.19;81.01;102148.09;20849178;28;20411;-62
2023/06/07 23:00:33;;;;;;;20.25;5.53;;;;;;;14.05;81.34;102150.16;20849426;28;19921;-62
2023/06/07 23:10:55;;;;;;;16.52;5.35;;;;;;;14.24;79.86;102148.84;20845371;28;20140;-62
2023/06/07 23:21:18;;;;;;;12.88;5.13;;;;;;;14.20;80.71;102143.72;20850353;28;20045;-63
2023/06/07 23:31:40;;;;;;;15.68;5.57;;;;;;;14.15;80.91;102146.47;20848994;28;20052;-63
2023/06/07 23:42:01;;;;;;;;;;;;;;;14.12;81.75;102141.31;20848492;28;20362;-63
2023/06/07 23:52:23;;;;;;;14.43;4.80;;;;;;;14.08;80.82;102137.09;20857655;28;19921;-63
